• Join FlightAware (Why Join?)
  • Login
  • US Flag 
08:14AM EDT


 

Airport Tracker/Info


-or-


 

Live Flight TrackerFlight Track Log ✈ CTL61 ✈ 18-Apr-2013 ✈ KCRW - KOSU

Flight Track Log - Related Links

Times and Time Zones

All times are in EDT time to prevent confusion due to time zone crossing. See the CTL61 flight status page for this flight to view local times or setup timezone preferences in your user account.

Time Position Orientation Groundspeed Altitude Reporting Facility
EDT Latitude Longitude Course Direction KTS MPH feet Rate Location/Type
11:41PM 38.4661 -81.6931 329° Northwest 146 168 4,200  Level Indianapolis Center
11:42PM 38.5011 -81.7228 326° Northwest 150 173 5,100 780 Climbing Indianapolis Center
11:43PM 38.5631 -81.7507 327° Northwest  Level FlightAware Approximate
11:43PM 38.5364 -81.7508 328° Northwest 149 171 5,900  Level Indianapolis Center
11:44PM 38.6026 -81.7841 327° Northwest  Level FlightAware Approximate
11:44PM 38.5706 -81.7844 322° Northwest 152 175 6,000  Level Indianapolis Center
11:45PM 38.6421 -81.8175 327° Northwest  Level FlightAware Approximate
11:45PM 38.6136 -81.8208 327° Northwest 179 206 6,100  Level Indianapolis Center
11:46PM 38.6647 -81.8650 326° Northwest 183 211 6,100  Level Indianapolis Center
11:47PM 38.7081 -81.9017 327° Northwest 184 212 6,100  Level Indianapolis Center
11:48PM 38.7508 -81.9400 325° Northwest 188 216 6,100  Level Indianapolis Center
11:49PM 38.7933 -81.9758 327° Northwest 184 212 6,100  Level Indianapolis Center
11:50PM 38.8364 -82.0131 326° Northwest 185 213 6,100  Level Indianapolis Center
11:51PM 38.8789 -82.0503 326° Northwest 184 212 6,100  Level Indianapolis Center
11:52PM 38.9225 -82.0861 327° Northwest 185 213 6,100  Level Indianapolis Center
11:53PM 38.9664 -82.1222 327° Northwest 186 214 6,200  Climbing Indianapolis Center
11:54PM 39.0086 -82.1594 326° Northwest 183 211 6,200  Level Indianapolis Center
11:55PM 39.0508 -82.1961 326° Northwest 184 212 6,200  Level Indianapolis Center
11:56PM 39.0950 -82.2325 327° Northwest 187 215 6,200  Level Indianapolis Center
11:57PM 39.1383 -82.2700 326° Northwest 187 215 6,200 -60 Level Indianapolis Center
11:58PM 39.1828 -82.3072 327° Northwest 189 217 6,100 -60 Descending Indianapolis Center
11:59PM 39.2278 -82.3439 328° Northwest 190 219 6,100  Level Indianapolis Center
12:00AM 39.2739 -82.3811 328° Northwest 193 222 6,100  Level Indianapolis Center
12:01AM 39.3181 -82.4167 328° Northwest 189 217 6,100  Level Indianapolis Center
12:02AM 39.3750 -82.4583 331° Northwest 194 223 6,100  Level Indianapolis Center
12:02AM 39.3853 -82.4656 331° Northwest 194 223 6,100 60 Level Indianapolis Center
12:03AM 39.4194 -82.4942 327° Northwest 189 217 6,200  Climbing Indianapolis Center
12:03AM 39.4289 -82.5025 326° Northwest 190 219 6,100 -120 Descending Indianapolis Center
12:04AM 39.4644 -82.5331 326° Northwest 191 220 6,100  Level Indianapolis Center
12:05AM 39.5086 -82.5719 326° Northwest 191 220 6,100  Level Indianapolis Center
12:06AM 39.5533 -82.6100 327° Northwest 190 219 6,100  Level Indianapolis Center
12:07AM 39.6008 -82.6564 323° Northwest 191 220 6,100  Level Indianapolis Center
12:08AM 39.6433 -82.6881 330° Northwest 193 222 6,100  Level Indianapolis Center
12:09AM 39.6842 -82.7278 323° Northwest 191 220 6,100  Level Indianapolis Center
12:10AM 39.7253 -82.7675 323° Northwest 190 219 6,200 -60 Climbing Indianapolis Center
12:11AM 39.7686 -82.8103 323° Northwest 191 220 6,000 -360 Descending Indianapolis Center
12:12AM 39.8222 -82.8517 329° Northwest 216 249 5,500 -540 Descending Indianapolis Center
12:13AM 39.8828 -82.8511 360° North 228 262 4,900 -600 Descending Indianapolis Center
12:14AM 39.9453 -82.8575 356° North 227 261 4,300 -900 Descending Indianapolis Center
12:15AM 40.0089 -82.8764 347° North 237 273 3,100 -720 Descending Indianapolis Center
12:16AM 40.0586 -82.9136 330° Northwest 229 264 2,900 -240 Descending Indianapolis Center
12:18AM 40.0684 -82.9867 323° Northwest  Level Estimated
12:25AM 40.0667 -83.0667 323° Northwest  Level FlightAware Approximate
12:26AM 40.0798 -83.0732 323° Northwest  Level Estimated